Time;durP1;ratioP1;P1;durP2;ratioP2;P2;SDS_P1;SDS_P2;PMS_P1;PMS_P2;Temp;Humidity;BMP_temperature;BMP_pressure;BME280_temperature;BME280_humidity;BME280_pressure;Samples;Min_cycle;Max_cycle;Signal;HPM_P1;HPM_P2
2021/07/25 00:00:48;;;;;;;14.35;13.25;;;;;;;;;;5014364;28;24485;-53
2021/07/25 00:03:14;;;;;;;14.30;13.20;;;;;;;;;;5022655;28;24921;-53
2021/07/25 00:05:40;;;;;;;13.88;12.88;;;;;;;;;;5020289;28;24411;-53
2021/07/25 00:08:05;;;;;;;15.13;14.00;;;;;;;;;;5029846;28;24413;-53
2021/07/25 00:10:30;;;;;;;14.60;13.50;;;;;;;;;;5026275;28;24438;-53
2021/07/25 00:12:55;;;;;;;14.27;13.17;;;;;;;;;;5024342;28;24989;-53
2021/07/25 00:15:20;;;;;;;14.90;13.80;;;;;;;;;;5029902;28;24558;-53
2021/07/25 00:17:46;;;;;;;15.60;14.30;;;;;;;;;;5032385;28;24427;-53
2021/07/25 00:20:11;;;;;;;14.50;13.50;;;;;;;;;;5026425;28;24448;-53
2021/07/25 00:22:37;;;;;;;15.97;14.77;;;;;;;;;;5032502;28;24460;-53
2021/07/25 00:25:09;;;;;;;16.20;15.00;;;;;;;;;;5035242;28;24427;-53
2021/07/25 00:27:36;;;;;;;15.20;14.00;;;;;;;;;;5036285;28;24465;-53
2021/07/25 00:30:01;;;;;;;15.70;14.50;;;;;;;;;;5018925;28;24511;-53
2021/07/25 00:32:26;;;;;;;13.87;12.87;;;;;;;;;;5018506;28;24508;-53
2021/07/25 00:34:52;;;;;;;14.17;13.17;;;;;;;;;;5034638;28;24962;-53
2021/07/25 00:37:18;;;;;;;14.45;13.35;;;;;;;;;;5031594;28;25024;-53
2021/07/25 00:39:43;;;;;;;14.53;13.43;;;;;;;;;;5020020;28;24420;-53
2021/07/25 00:42:08;;;;;;;14.03;12.90;;;;;;;;;;5023234;28;24412;-54
2021/07/25 00:44:34;;;;;;;14.20;13.10;;;;;;;;;;5025051;28;24539;-53
2021/07/25 00:46:59;;;;;;;14.20;13.20;;;;;;;;;;5023553;28;24412;-53
2021/07/25 00:49:25;;;;;;;15.13;14.02;;;;;;;;;;5034173;28;24605;-53
2021/07/25 00:51:51;;;;;;;14.88;13.70;;;;;;;;;;5023973;28;24416;-53
2021/07/25 00:54:16;;;;;;;14.63;13.53;;;;;;;;;;5023386;28;24413;-53
2021/07/25 00:56:41;;;;;;;14.13;13.13;;;;;;;;;;5016825;28;24430;-53
2021/07/25 00:59:06;;;;;;;14.02;12.93;;;;;;;;;;5010698;28;24455;-53
2021/07/25 01:01:31;;;;;;;13.63;12.63;;;;;;;;;;5018580;28;24428;-53
2021/07/25 01:04:12;;;;;;;13.63;12.63;;;;;;;;;;5021934;28;24478;-53
2021/07/25 01:06:43;;;;;;;14.30;13.20;;;;;;;;;;5028164;28;24415;-53
2021/07/25 01:09:12;;;;;;;14.57;13.48;;;;;;;;;;5040318;28;24407;-53
2021/07/25 01:11:44;;;;;;;13.60;12.60;;;;;;;;;;5016059;28;24500;-53
2021/07/25 01:14:11;;;;;;;14.45;13.27;;;;;;;;;;5023812;28;24424;-53
2021/07/25 01:16:36;;;;;;;15.07;13.77;;;;;;;;;;5021255;28;24471;-53
2021/07/25 01:19:01;;;;;;;13.95;12.95;;;;;;;;;;5041422;28;24833;-53
2021/07/25 01:21:26;;;;;;;14.57;13.47;;;;;;;;;;5041950;28;24416;-53
2021/07/25 01:23:51;;;;;;;14.50;13.50;;;;;;;;;;5025464;28;24869;-53
2021/07/25 01:26:20;;;;;;;14.33;13.33;;;;;;;;;;5022584;28;24419;-53
2021/07/25 01:28:47;;;;;;;14.90;13.80;;;;;;;;;;5020678;28;24431;-54
2021/07/25 01:31:15;;;;;;;15.18;14.07;;;;;;;;;;5024203;28;24414;-53
2021/07/25 01:33:40;;;;;;;15.38;14.23;;;;;;;;;;5020541;28;24419;-54
2021/07/25 01:36:05;;;;;;;16.37;15.07;;;;;;;;;;5029268;28;24427;-53
2021/07/25 01:38:31;;;;;;;15.13;13.93;;;;;;;;;;5021391;28;24411;-53
2021/07/25 01:41:10;;;;;;;15.23;14.10;;;;;;;;;;5037682;28;24410;-53
2021/07/25 01:43:36;;;;;;;14.60;13.50;;;;;;;;;;5033289;28;24985;-53
2021/07/25 01:46:02;;;;;;;14.60;13.50;;;;;;;;;;5012775;28;24432;-52
2021/07/25 01:48:28;;;;;;;15.63;14.43;;;;;;;;;;5016152;28;24526;-53
2021/07/25 01:50:53;;;;;;;14.50;13.40;;;;;;;;;;5030626;28;24885;-53
2021/07/25 01:53:18;;;;;;;15.53;14.43;;;;;;;;;;5018614;28;24415;-53
2021/07/25 01:55:43;;;;;;;14.77;13.68;;;;;;;;;;5023928;28;24767;-53
2021/07/25 01:58:09;;;;;;;14.90;13.70;;;;;;;;;;5014636;28;24508;-53
2021/07/25 02:00:34;;;;;;;15.10;13.80;;;;;;;;;;5036584;28;24482;-53
2021/07/25 02:02:59;;;;;;;16.37;15.17;;;;;;;;;;5023538;28;24466;-53
2021/07/25 02:05:24;;;;;;;16.15;14.95;;;;;;;;;;5018916;28;25005;-53
2021/07/25 02:07:49;;;;;;;15.80;14.60;;;;;;;;;;5034315;28;24408;-53
2021/07/25 02:10:15;;;;;;;16.85;15.45;;;;;;;;;;5021871;28;24432;-53
2021/07/25 02:12:40;;;;;;;15.67;14.50;;;;;;;;;;5018965;28;24868;-53
2021/07/25 02:15:05;;;;;;;16.10;14.70;;;;;;;;;;5026700;28;24430;-53
2021/07/25 02:17:30;;;;;;;15.77;14.50;;;;;;;;;;5030862;28;24438;-53
2021/07/25 02:19:55;;;;;;;16.03;14.63;;;;;;;;;;5034496;28;24472;-53
2021/07/25 02:22:21;;;;;;;15.63;14.43;;;;;;;;;;5035085;28;24514;-53
2021/07/25 02:24:46;;;;;;;15.20;14.00;;;;;;;;;;5026382;28;24990;-53
2021/07/25 02:27:11;;;;;;;14.93;13.73;;;;;;;;;;5031773;28;24449;-53
2021/07/25 02:29:36;;;;;;;14.07;12.98;;;;;;;;;;5026700;28;24419;-53
2021/07/25 02:32:01;;;;;;;14.60;13.50;;;;;;;;;;5028589;28;24524;-53
2021/07/25 02:34:26;;;;;;;15.25;14.07;;;;;;;;;;5035712;28;24445;-53
2021/07/25 02:36:52;;;;;;;15.00;13.80;;;;;;;;;;5017802;28;24424;-53
2021/07/25 02:39:17;;;;;;;15.50;14.30;;;;;;;;;;5026573;28;24490;-53
2021/07/25 02:41:42;;;;;;;17.50;16.00;;;;;;;;;;5023892;28;24424;-53
2021/07/25 02:44:08;;;;;;;15.53;14.33;;;;;;;;;;5029098;28;24863;-53
2021/07/25 02:46:34;;;;;;;15.85;14.75;;;;;;;;;;5020314;28;24423;-53
2021/07/25 02:48:59;;;;;;;14.68;13.57;;;;;;;;;;5020429;28;24436;-53
2021/07/25 02:51:24;;;;;;;14.00;12.90;;;;;;;;;;5023332;28;25248;-53
2021/07/25 02:53:49;;;;;;;14.70;13.60;;;;;;;;;;5024927;28;24408;-53
2021/07/25 02:56:14;;;;;;;14.30;13.13;;;;;;;;;;5015833;28;24412;-53
2021/07/25 02:58:40;;;;;;;12.85;11.95;;;;;;;;;;5026393;28;24424;-52
2021/07/25 03:01:08;;;;;;;12.85;11.85;;;;;;;;;;5025230;28;24477;-53
2021/07/25 03:03:33;;;;;;;13.88;12.88;;;;;;;;;;5027727;28;24896;-53
2021/07/25 03:05:58;;;;;;;14.55;13.35;;;;;;;;;;5039480;28;24491;-53
2021/07/25 03:08:24;;;;;;;12.85;11.95;;;;;;;;;;5021634;28;24422;-54
2021/07/25 03:10:49;;;;;;;13.65;12.65;;;;;;;;;;5030372;28;24459;-53
2021/07/25 03:13:14;;;;;;;13.35;12.35;;;;;;;;;;5022987;28;25001;-53
2021/07/25 03:15:39;;;;;;;13.70;12.70;;;;;;;;;;5016713;28;24404;-53
2021/07/25 03:18:04;;;;;;;13.30;12.40;;;;;;;;;;5015623;28;24447;-53
2021/07/25 03:20:29;;;;;;;14.20;13.10;;;;;;;;;;5023620;28;24995;-53
2021/07/25 03:22:55;;;;;;;13.40;12.40;;;;;;;;;;5033522;28;24426;-53
2021/07/25 03:25:20;;;;;;;13.32;12.13;;;;;;;;;;5037722;28;24474;-53
2021/07/25 03:27:45;;;;;;;13.90;12.70;;;;;;;;;;5025366;28;24415;-53
2021/07/25 03:30:10;;;;;;;13.50;12.50;;;;;;;;;;5025331;28;24519;-53
2021/07/25 03:32:36;;;;;;;13.73;12.73;;;;;;;;;;5020135;28;25215;-53
2021/07/25 03:35:01;;;;;;;13.95;12.90;;;;;;;;;;5018888;28;24998;-53
2021/07/25 03:37:26;;;;;;;13.40;12.50;;;;;;;;;;5025363;28;24978;-53
2021/07/25 03:39:53;;;;;;;13.13;12.13;;;;;;;;;;5022386;28;25001;-53
2021/07/25 03:42:19;;;;;;;13.00;12.00;;;;;;;;;;5028056;28;24766;-53
2021/07/25 03:44:44;;;;;;;13.82;12.73;;;;;;;;;;5035747;28;25036;-53
2021/07/25 03:47:10;;;;;;;13.00;12.00;;;;;;;;;;5029645;28;24420;-53
2021/07/25 03:49:37;;;;;;;13.70;12.70;;;;;;;;;;5026520;28;24433;-53
2021/07/25 03:52:02;;;;;;;13.70;12.70;;;;;;;;;;5042858;28;24418;-54
2021/07/25 03:54:27;;;;;;;12.33;11.33;;;;;;;;;;5029519;28;24712;-53
2021/07/25 03:56:52;;;;;;;13.20;12.20;;;;;;;;;;5033947;28;25168;-53
2021/07/25 03:59:18;;;;;;;12.35;11.40;;;;;;;;;;5039412;28;24418;-53
2021/07/25 04:01:43;;;;;;;11.90;11.10;;;;;;;;;;5034179;28;24423;-53
2021/07/25 04:04:08;;;;;;;13.97;12.87;;;;;;;;;;5037352;28;24556;-53
2021/07/25 04:06:33;;;;;;;13.32;12.32;;;;;;;;;;5035363;28;24408;-53
2021/07/25 04:08:59;;;;;;;14.20;13.00;;;;;;;;;;5036682;28;24413;-53
2021/07/25 04:11:24;;;;;;;12.50;11.60;;;;;;;;;;5040185;28;24404;-53
2021/07/25 04:13:49;;;;;;;13.37;12.37;;;;;;;;;;5022269;28;24785;-53
2021/07/25 04:16:15;;;;;;;13.73;12.63;;;;;;;;;;5038001;28;24422;-53
2021/07/25 04:18:40;;;;;;;15.00;13.70;;;;;;;;;;5026907;28;24428;-52
2021/07/25 04:21:05;;;;;;;12.43;11.52;;;;;;;;;;5025040;28;24797;-53
2021/07/25 04:23:30;;;;;;;13.20;12.20;;;;;;;;;;5035481;28;24973;-53
2021/07/25 04:25:55;;;;;;;13.15;12.15;;;;;;;;;;5035256;28;24510;-53
2021/07/25 04:28:22;;;;;;;12.32;11.43;;;;;;;;;;5022773;28;20801;-53
2021/07/25 04:30:47;;;;;;;13.20;12.20;;;;;;;;;;5047582;28;24996;-54
2021/07/25 04:33:15;;;;;;;12.50;11.60;;;;;;;;;;5043236;28;24427;-53
2021/07/25 04:35:41;;;;;;;13.77;12.77;;;;;;;;;;5019101;28;24438;-53
2021/07/25 04:38:06;;;;;;;13.07;12.07;;;;;;;;;;5029045;28;24451;-53
2021/07/25 04:40:32;;;;;;;12.90;12.00;;;;;;;;;;5035450;28;25009;-53
2021/07/25 04:42:58;;;;;;;13.40;12.40;;;;;;;;;;5033339;28;24415;-53
2021/07/25 04:45:42;;;;;;;13.80;12.80;;;;;;;;;;5036159;28;25000;-53
2021/07/25 04:48:07;;;;;;;11.90;11.00;;;;;;;;;;5020620;28;24444;-53
2021/07/25 04:50:35;;;;;;;13.67;12.67;;;;;;;;;;5036304;28;24423;-53
2021/07/25 04:53:01;;;;;;;13.85;12.75;;;;;;;;;;5037000;28;24445;-53
2021/07/25 04:55:30;;;;;;;13.88;12.88;;;;;;;;;;5017481;28;25041;-53
2021/07/25 04:58:02;;;;;;;15.10;13.90;;;;;;;;;;5024737;28;24423;-53
2021/07/25 05:00:30;;;;;;;13.60;12.60;;;;;;;;;;5028013;28;24473;-52
2021/07/25 05:03:00;;;;;;;14.98;13.85;;;;;;;;;;5014413;28;24515;-53
2021/07/25 05:05:25;;;;;;;13.65;12.65;;;;;;;;;;5027066;28;24534;-53
2021/07/25 05:07:51;;;;;;;13.30;12.30;;;;;;;;;;5028449;28;24554;-53
2021/07/25 05:10:16;;;;;;;13.20;12.20;;;;;;;;;;5026987;28;25098;-53
2021/07/25 05:12:51;;;;;;;12.47;11.57;;;;;;;;;;5021176;28;24422;-53
2021/07/25 05:15:33;;;;;;;13.80;12.70;;;;;;;;;;5024260;28;24965;-53
2021/07/25 05:18:03;;;;;;;12.55;11.65;;;;;;;;;;5019506;28;24416;-53
2021/07/25 05:20:31;;;;;;;12.35;11.35;;;;;;;;;;5028030;28;24433;-53
2021/07/25 05:23:02;;;;;;;13.13;12.23;;;;;;;;;;5012507;28;24553;-53
2021/07/25 05:25:28;;;;;;;11.65;10.85;;;;;;;;;;5027286;28;25035;-53
2021/07/25 05:27:54;;;;;;;13.93;12.93;;;;;;;;;;5028843;28;24973;-53
2021/07/25 05:30:20;;;;;;;14.10;13.03;;;;;;;;;;5022284;28;24954;-53
2021/07/25 05:32:45;;;;;;;14.68;13.57;;;;;;;;;;5027269;28;24507;-53
2021/07/25 05:35:11;;;;;;;14.27;13.17;;;;;;;;;;5030628;28;24514;-52
2021/07/25 05:37:36;;;;;;;13.07;12.18;;;;;;;;;;5028039;28;24778;-53
2021/07/25 05:40:02;;;;;;;12.90;12.00;;;;;;;;;;5029523;28;24515;-53
2021/07/25 05:42:30;;;;;;;13.53;12.50;;;;;;;;;;5017179;28;24535;-52
2021/07/25 05:44:55;;;;;;;13.43;12.43;;;;;;;;;;5026470;28;24424;-52
2021/07/25 05:47:20;;;;;;;13.43;12.33;;;;;;;;;;5029435;28;24430;-52
2021/07/25 05:49:45;;;;;;;14.77;13.73;;;;;;;;;;5028694;28;24523;-52
2021/07/25 05:52:11;;;;;;;13.57;12.57;;;;;;;;;;5008952;28;24505;-52
2021/07/25 05:54:36;;;;;;;14.70;13.60;;;;;;;;;;5030873;28;24950;-52
2021/07/25 05:57:01;;;;;;;14.20;13.20;;;;;;;;;;5013157;28;24443;-52
2021/07/25 05:59:26;;;;;;;15.20;14.00;;;;;;;;;;5029807;28;24423;-53
2021/07/25 06:01:52;;;;;;;14.13;13.03;;;;;;;;;;5026106;28;24423;-53
2021/07/25 06:04:17;;;;;;;13.45;12.35;;;;;;;;;;5029461;28;24900;-54
2021/07/25 06:06:42;;;;;;;13.27;12.37;;;;;;;;;;5027768;28;25048;-53
2021/07/25 06:09:08;;;;;;;12.30;11.40;;;;;;;;;;5024699;28;24464;-53
2021/07/25 06:11:33;;;;;;;13.47;12.57;;;;;;;;;;5010378;28;24582;-53
2021/07/25 06:13:59;;;;;;;12.48;11.68;;;;;;;;;;5020103;28;24463;-53
2021/07/25 06:16:24;;;;;;;13.87;12.97;;;;;;;;;;5023075;28;24451;-53
2021/07/25 06:18:49;;;;;;;14.57;13.47;;;;;;;;;;5017457;28;24842;-53
2021/07/25 06:21:15;;;;;;;13.60;12.60;;;;;;;;;;5022465;28;24408;-53
2021/07/25 06:23:41;;;;;;;14.23;13.18;;;;;;;;;;5010570;28;24472;-52
2021/07/25 06:26:06;;;;;;;14.30;13.30;;;;;;;;;;5011644;28;24419;-52
2021/07/25 06:28:31;;;;;;;14.30;13.30;;;;;;;;;;5015722;28;24416;-53
2021/07/25 06:30:56;;;;;;;13.20;12.30;;;;;;;;;;5013463;28;24891;-52
2021/07/25 06:33:21;;;;;;;14.75;13.45;;;;;;;;;;5017758;28;24420;-53
2021/07/25 06:35:46;;;;;;;13.73;12.53;;;;;;;;;;5018270;28;25156;-53
2021/07/25 06:38:13;;;;;;;14.30;13.20;;;;;;;;;;5020202;28;24431;-54
2021/07/25 06:40:40;;;;;;;14.25;13.27;;;;;;;;;;5029469;28;24973;-55
2021/07/25 06:43:05;;;;;;;13.60;12.60;;;;;;;;;;5016009;28;24993;-54
2021/07/25 06:45:32;;;;;;;12.90;12.00;;;;;;;;;;5016667;28;24526;-53
2021/07/25 06:47:57;;;;;;;14.05;13.00;;;;;;;;;;5006697;28;24457;-53
2021/07/25 06:50:23;;;;;;;13.35;12.35;;;;;;;;;;5010797;28;24478;-53
2021/07/25 06:52:49;;;;;;;13.18;12.20;;;;;;;;;;5018463;28;25021;-54
2021/07/25 06:55:14;;;;;;;15.10;14.10;;;;;;;;;;5018157;28;24467;-52
2021/07/25 06:57:40;;;;;;;14.37;13.27;;;;;;;;;;5017306;28;24494;-52
2021/07/25 07:00:06;;;;;;;13.40;12.40;;;;;;;;;;5007792;28;24845;-53
2021/07/25 07:02:50;;;;;;;14.23;13.20;;;;;;;;;;5023357;28;25051;-52
2021/07/25 07:05:17;;;;;;;14.27;13.27;;;;;;;;;;5035212;28;24473;-52
2021/07/25 07:07:43;;;;;;;15.60;14.40;;;;;;;;;;5009783;28;24419;-53
2021/07/25 07:10:09;;;;;;;14.23;13.23;;;;;;;;;;5011685;28;24462;-53
2021/07/25 07:12:35;;;;;;;15.30;14.20;;;;;;;;;;5023430;28;25168;-53
2021/07/25 07:15:00;;;;;;;13.90;12.90;;;;;;;;;;5030945;28;24519;-53
2021/07/25 07:17:25;;;;;;;14.70;13.40;;;;;;;;;;5011302;28;24511;-53
2021/07/25 07:19:50;;;;;;;15.20;14.00;;;;;;;;;;5004662;28;24519;-53
2021/07/25 07:22:28;;;;;;;14.32;13.13;;;;;;;;;;5033424;28;24979;-52
2021/07/25 07:24:54;;;;;;;14.43;13.43;;;;;;;;;;5018455;28;25151;-52
2021/07/25 07:27:19;;;;;;;14.07;13.07;;;;;;;;;;5027959;28;24419;-53
2021/07/25 07:29:44;;;;;;;13.33;12.33;;;;;;;;;;5031951;28;24416;-54
2021/07/25 07:32:09;;;;;;;12.63;11.63;;;;;;;;;;5013053;28;24421;-55
2021/07/25 07:34:34;;;;;;;11.85;11.05;;;;;;;;;;5017307;28;24420;-53
2021/07/25 07:37:00;;;;;;;13.90;12.90;;;;;;;;;;5018398;28;24506;-53
2021/07/25 07:39:25;;;;;;;15.15;13.55;;;;;;;;;;5015818;28;24443;-53
2021/07/25 07:41:50;;;;;;;14.37;13.07;;;;;;;;;;5013525;28;24958;-53
2021/07/25 07:44:15;;;;;;;13.20;12.20;;;;;;;;;;5028554;28;24442;-54
2021/07/25 07:46:40;;;;;;;13.82;12.73;;;;;;;;;;5021638;28;24448;-54
2021/07/25 07:49:06;;;;;;;12.68;11.77;;;;;;;;;;5021396;28;24475;-54
2021/07/25 07:51:31;;;;;;;13.20;12.30;;;;;;;;;;5030683;28;24431;-54
2021/07/25 07:53:56;;;;;;;13.40;12.20;;;;;;;;;;5021871;28;24420;-54
2021/07/25 07:56:23;;;;;;;14.45;13.30;;;;;;;;;;5019181;28;24495;-53
2021/07/25 07:58:48;;;;;;;12.60;11.60;;;;;;;;;;5023857;28;24400;-53
2021/07/25 08:01:13;;;;;;;13.30;12.40;;;;;;;;;;5026116;28;24402;-53
2021/07/25 08:03:38;;;;;;;13.40;12.40;;;;;;;;;;5026381;28;24754;-53
2021/07/25 08:06:04;;;;;;;13.50;12.50;;;;;;;;;;5012844;28;24412;-53
2021/07/25 08:08:29;;;;;;;12.93;12.00;;;;;;;;;;5006979;28;24389;-53
2021/07/25 08:10:54;;;;;;;13.73;12.73;;;;;;;;;;5007358;28;24393;-54
2021/07/25 08:13:19;;;;;;;12.80;11.90;;;;;;;;;;5007157;28;24423;-53
2021/07/25 08:15:44;;;;;;;13.40;12.30;;;;;;;;;;5025312;28;24427;-53
2021/07/25 08:18:09;;;;;;;13.13;12.23;;;;;;;;;;5026851;28;24461;-54
2021/07/25 08:20:35;;;;;;;13.00;12.00;;;;;;;;;;5026803;28;24487;-53
2021/07/25 08:23:00;;;;;;;14.05;13.05;;;;;;;;;;5027018;28;24453;-53
2021/07/25 08:25:25;;;;;;;12.80;11.90;;;;;;;;;;5025874;28;24953;-54
2021/07/25 08:27:50;;;;;;;12.90;12.00;;;;;;;;;;5030852;28;24403;-53
2021/07/25 08:30:15;;;;;;;14.25;13.25;;;;;;;;;;5030622;28;24387;-53
2021/07/25 08:32:40;;;;;;;12.90;12.00;;;;;;;;;;5030913;28;24383;-54
2021/07/25 08:35:06;;;;;;;13.75;12.75;;;;;;;;;;5028831;28;24419;-53
2021/07/25 08:37:31;;;;;;;14.90;13.80;;;;;;;;;;5030544;28;24411;-54
2021/07/25 08:39:56;;;;;;;13.27;12.27;;;;;;;;;;5030512;28;24542;-53
2021/07/25 08:42:23;;;;;;;11.93;11.13;;;;;;;;;;5030508;28;24534;-53
2021/07/25 08:44:55;;;;;;;12.98;12.07;;;;;;;;;;5030116;28;24500;-53
2021/07/25 08:47:20;;;;;;;13.40;12.50;;;;;;;;;;5028152;28;24427;-54
2021/07/25 08:49:48;;;;;;;13.50;12.50;;;;;;;;;;5030025;28;24412;-53
2021/07/25 08:52:17;;;;;;;13.80;12.80;;;;;;;;;;5030112;28;24414;-54
2021/07/25 08:54:42;;;;;;;12.95;12.05;;;;;;;;;;5030088;28;24466;-53
2021/07/25 08:57:12;;;;;;;13.87;12.87;;;;;;;;;;5028193;28;24412;-53
2021/07/25 08:59:40;;;;;;;13.93;12.73;;;;;;;;;;5028417;28;24395;-53
2021/07/25 09:02:07;;;;;;;13.57;12.57;;;;;;;;;;5030072;28;24965;-54
2021/07/25 09:04:32;;;;;;;13.77;12.77;;;;;;;;;;5029663;28;24427;-54
2021/07/25 09:07:02;;;;;;;11.90;11.10;;;;;;;;;;5028025;28;24782;-54
2021/07/25 09:09:27;;;;;;;12.10;11.30;;;;;;;;;;5029663;28;24469;-54
2021/07/25 09:11:52;;;;;;;13.37;12.47;;;;;;;;;;5029931;28;24963;-54
2021/07/25 09:14:17;;;;;;;13.00;12.00;;;;;;;;;;5029897;28;24999;-53
2021/07/25 09:16:42;;;;;;;14.03;13.03;;;;;;;;;;5010857;28;25296;-54
2021/07/25 09:19:08;;;;;;;13.40;12.50;;;;;;;;;;5009985;28;24811;-54
2021/07/25 09:21:43;;;;;;;14.17;13.07;;;;;;;;;;5029058;28;25013;-53
2021/07/25 09:24:28;;;;;;;14.60;13.40;;;;;;;;;;5018917;28;24803;-54
2021/07/25 09:26:56;;;;;;;15.07;13.88;;;;;;;;;;5009953;28;24770;-54
2021/07/25 09:29:23;;;;;;;14.10;13.00;;;;;;;;;;5009508;28;24396;-54
2021/07/25 09:31:48;;;;;;;13.80;12.80;;;;;;;;;;5009512;28;24944;-53
2021/07/25 09:34:32;;;;;;;13.63;12.53;;;;;;;;;;5017778;28;24473;-53
2021/07/25 09:37:20;;;;;;;13.13;12.13;;;;;;;;;;5029069;28;24491;-53
2021/07/25 09:39:52;;;;;;;14.30;13.20;;;;;;;;;;5023699;28;24420;-53
2021/07/25 09:42:27;;;;;;;14.37;13.17;;;;;;;;;;5029217;28;24396;-54
2021/07/25 09:44:54;;;;;;;15.25;14.05;;;;;;;;;;5027298;28;24420;-54
2021/07/25 09:47:39;;;;;;;15.13;14.03;;;;;;;;;;5029319;28;25002;-53
2021/07/25 09:50:05;;;;;;;15.00;13.90;;;;;;;;;;5028800;28;24463;-53
2021/07/25 09:52:31;;;;;;;13.10;12.20;;;;;;;;;;5028701;28;24396;-54
2021/07/25 09:54:57;;;;;;;15.00;13.80;;;;;;;;;;5027034;28;24770;-53
2021/07/25 09:57:23;;;;;;;14.70;13.50;;;;;;;;;;5028538;28;24965;-53
2021/07/25 09:59:48;;;;;;;13.45;12.50;;;;;;;;;;5028995;28;24437;-53
2021/07/25 10:02:29;;;;;;;13.57;12.67;;;;;;;;;;5029027;28;24971;-54
2021/07/25 10:05:32;;;;;;;14.50;13.50;;;;;;;;;;5027831;28;24830;-54
2021/07/25 10:07:57;;;;;;;15.80;14.60;;;;;;;;;;4966973;28;24464;-54
2021/07/25 10:10:22;;;;;;;13.50;12.60;;;;;;;;;;5000441;28;24981;-54
2021/07/25 10:12:47;;;;;;;13.80;12.90;;;;;;;;;;5009099;28;24442;-53
2021/07/25 10:15:13;;;;;;;14.77;13.73;;;;;;;;;;5009036;28;24548;-54
2021/07/25 10:17:40;;;;;;;14.90;13.90;;;;;;;;;;5026778;28;24422;-54
2021/07/25 10:20:06;;;;;;;13.97;12.97;;;;;;;;;;5028432;28;24408;-54
2021/07/25 10:22:33;;;;;;;14.23;13.23;;;;;;;;;;5028664;28;24396;-54
2021/07/25 10:25:00;;;;;;;14.02;13.02;;;;;;;;;;5028279;28;24966;-54
2021/07/25 10:27:25;;;;;;;13.75;12.85;;;;;;;;;;5028028;28;24436;-54
2021/07/25 10:29:53;;;;;;;13.40;12.50;;;;;;;;;;5028287;28;24965;-53
2021/07/25 10:32:19;;;;;;;14.52;13.43;;;;;;;;;;5027977;28;24420;-54
2021/07/25 10:34:45;;;;;;;14.02;13.02;;;;;;;;;;5028308;28;25270;-54
2021/07/25 10:37:11;;;;;;;13.70;12.80;;;;;;;;;;5026564;28;24514;-54
2021/07/25 10:39:36;;;;;;;13.80;12.80;;;;;;;;;;5027793;28;24399;-54
2021/07/25 10:42:02;;;;;;;13.73;12.63;;;;;;;;;;5028191;28;24960;-54
2021/07/25 10:44:28;;;;;;;14.80;13.80;;;;;;;;;;5027910;28;24423;-54
2021/07/25 10:47:12;;;;;;;14.43;13.45;;;;;;;;;;5027666;28;24388;-55
2021/07/25 10:49:37;;;;;;;13.70;12.70;;;;;;;;;;5026597;28;24420;-55
2021/07/25 10:52:03;;;;;;;15.40;14.20;;;;;;;;;;5027622;28;24462;-54
2021/07/25 10:54:28;;;;;;;13.57;12.60;;;;;;;;;;5027624;28;24411;-55
2021/07/25 10:57:00;;;;;;;16.10;14.90;;;;;;;;;;5028090;28;24399;-54
2021/07/25 10:59:38;;;;;;;14.90;13.90;;;;;;;;;;5026090;28;24901;-54
2021/07/25 11:02:03;;;;;;;16.33;15.13;;;;;;;;;;5028025;28;24406;-54
2021/07/25 11:04:59;;;;;;;15.93;14.83;;;;;;;;;;5027300;28;24562;-55
2021/07/25 11:07:24;;;;;;;15.57;14.48;;;;;;;;;;5027712;28;24407;-54
2021/07/25 11:09:56;;;;;;;13.80;12.80;;;;;;;;;;5024791;28;24412;-54
2021/07/25 11:12:22;;;;;;;14.70;13.60;;;;;;;;;;5027494;28;24457;-54
2021/07/25 11:14:55;;;;;;;14.60;13.60;;;;;;;;;;5027405;28;24404;-54
2021/07/25 11:17:43;;;;;;;15.27;14.07;;;;;;;;;;5027516;28;24412;-54
2021/07/25 11:20:29;;;;;;;15.57;14.27;;;;;;;;;;5027217;28;24875;-54
2021/07/25 11:22:54;;;;;;;14.60;13.60;;;;;;;;;;5026688;28;24992;-54
2021/07/25 11:25:26;;;;;;;14.30;13.40;;;;;;;;;;5026991;28;24455;-54
2021/07/25 11:27:51;;;;;;;13.80;12.80;;;;;;;;;;5027513;28;24480;-54
2021/07/25 11:30:36;;;;;;;15.50;14.30;;;;;;;;;;5027627;28;24821;-54
2021/07/25 11:33:02;;;;;;;15.77;14.68;;;;;;;;;;5027429;28;24426;-55
2021/07/25 11:35:27;;;;;;;15.90;14.60;;;;;;;;;;5024807;28;24821;-55
2021/07/25 11:37:53;;;;;;;16.55;15.35;;;;;;;;;;5027715;28;24419;-55
2021/07/25 11:40:22;;;;;;;15.73;14.60;;;;;;;;;;5027332;28;24495;-54
2021/07/25 11:42:49;;;;;;;14.82;13.82;;;;;;;;;;5027287;28;24483;-54
2021/07/25 11:45:15;;;;;;;13.90;13.00;;;;;;;;;;5025483;28;24436;-54
2021/07/25 11:47:40;;;;;;;14.30;13.30;;;;;;;;;;5026870;28;24407;-54
2021/07/25 11:50:05;;;;;;;14.60;13.60;;;;;;;;;;5027421;28;24774;-54
2021/07/25 11:52:30;;;;;;;13.90;13.00;;;;;;;;;;5027048;28;25000;-54
2021/07/25 11:54:55;;;;;;;13.47;12.57;;;;;;;;;;5025630;28;24503;-56
2021/07/25 11:57:22;;;;;;;14.30;13.30;;;;;;;;;;5027023;28;24411;-54
2021/07/25 11:59:52;;;;;;;15.32;14.23;;;;;;;;;;5015234;28;24986;-54
2021/07/25 12:02:21;;;;;;;15.20;14.20;;;;;;;;;;5011218;28;24432;-54
2021/07/25 12:04:46;;;;;;;13.80;12.90;;;;;;;;;;5011261;28;24435;-54
2021/07/25 12:07:14;;;;;;;14.63;13.52;;;;;;;;;;5013333;28;24516;-54
2021/07/25 12:09:42;;;;;;;13.18;12.38;;;;;;;;;;5030828;28;25007;-54
2021/07/25 12:12:17;;;;;;;13.70;12.80;;;;;;;;;;5030849;28;24419;-55
2021/07/25 12:14:44;;;;;;;13.38;12.48;;;;;;;;;;5030775;28;25878;-55
2021/07/25 12:17:09;;;;;;;13.77;12.88;;;;;;;;;;5030510;28;25247;-55
2021/07/25 12:19:39;;;;;;;14.00;13.00;;;;;;;;;;5029975;28;24506;-54
2021/07/25 12:22:07;;;;;;;13.93;12.93;;;;;;;;;;5030911;28;24461;-54
2021/07/25 12:24:33;;;;;;;13.57;12.68;;;;;;;;;;5021932;28;24421;-55
2021/07/25 12:26:59;;;;;;;14.43;13.43;;;;;;;;;;5010680;28;24915;-54
2021/07/25 12:29:37;;;;;;;14.03;13.13;;;;;;;;;;5010984;28;24512;-55
2021/07/25 12:32:18;;;;;;;13.60;12.60;;;;;;;;;;5024360;28;24419;-55
2021/07/25 12:34:43;;;;;;;13.10;12.20;;;;;;;;;;5032150;28;24497;-54
2021/07/25 12:37:25;;;;;;;14.45;13.45;;;;;;;;;;5030716;28;24416;-54
2021/07/25 12:40:22;;;;;;;14.50;13.60;;;;;;;;;;5019399;28;25036;-54
2021/07/25 12:42:49;;;;;;;13.80;12.90;;;;;;;;;;4991070;28;24482;-54
2021/07/25 12:45:32;;;;;;;15.70;14.60;;;;;;;;;;5023257;28;24787;-55
2021/07/25 12:48:07;;;;;;;16.67;15.48;;;;;;;;;;5019657;28;24597;-54
2021/07/25 12:50:54;;;;;;;14.75;13.65;;;;;;;;;;5045197;28;24834;-55
2021/07/25 12:53:21;;;;;;;14.88;13.77;;;;;;;;;;5017439;28;24421;-55
2021/07/25 12:55:46;;;;;;;15.23;14.13;;;;;;;;;;5008122;28;24997;-54
2021/07/25 12:58:11;;;;;;;16.30;15.20;;;;;;;;;;5007917;28;24425;-54
2021/07/25 13:01:20;;;;;;;15.90;14.80;;;;;;;;;;5026653;28;24589;-54
2021/07/25 13:03:45;;;;;;;16.10;14.90;;;;;;;;;;5014176;28;24419;-54
2021/07/25 13:06:10;;;;;;;16.27;15.18;;;;;;;;;;5024314;28;24439;-53
2021/07/25 13:08:35;;;;;;;15.30;14.20;;;;;;;;;;5020445;28;24429;-53
2021/07/25 13:11:01;;;;;;;15.25;14.15;;;;;;;;;;5012515;28;24421;-54
2021/07/25 13:13:26;;;;;;;16.25;15.13;;;;;;;;;;5009843;28;24409;-54
2021/07/25 13:15:51;;;;;;;15.70;14.40;;;;;;;;;;5018584;28;24420;-54
2021/07/25 13:18:17;;;;;;;14.77;13.77;;;;;;;;;;5029366;28;24573;-54
2021/07/25 13:20:42;;;;;;;15.63;14.63;;;;;;;;;;5028610;28;24515;-54
2021/07/25 13:23:07;;;;;;;13.82;12.93;;;;;;;;;;5012204;28;24428;-54
2021/07/25 13:25:32;;;;;;;14.30;13.30;;;;;;;;;;5011715;28;24790;-54
2021/07/25 13:27:57;;;;;;;15.65;14.55;;;;;;;;;;5029224;28;24424;-54
2021/07/25 13:30:22;;;;;;;15.87;14.87;;;;;;;;;;5028052;28;24509;-54
2021/07/25 13:32:47;;;;;;;15.63;14.52;;;;;;;;;;5018691;28;24508;-54
2021/07/25 13:35:13;;;;;;;15.95;14.85;;;;;;;;;;5008504;28;24412;-54
2021/07/25 13:37:38;;;;;;;14.93;13.93;;;;;;;;;;5024250;28;24420;-55
2021/07/25 13:40:04;;;;;;;15.15;14.05;;;;;;;;;;5022813;28;24950;-54
2021/07/25 13:42:29;;;;;;;17.57;16.37;;;;;;;;;;5014081;28;24551;-54
2021/07/25 13:44:58;;;;;;;17.03;15.77;;;;;;;;;;5027164;28;24485;-54
2021/07/25 13:47:24;;;;;;;16.67;15.57;;;;;;;;;;5035402;28;24476;-54
2021/07/25 13:49:49;;;;;;;17.10;15.80;;;;;;;;;;5015950;28;24518;-54
2021/07/25 13:52:14;;;;;;;16.75;15.60;;;;;;;;;;5033576;28;24423;-54
2021/07/25 13:54:39;;;;;;;15.63;14.43;;;;;;;;;;5028896;28;24510;-54
2021/07/25 13:57:04;;;;;;;15.90;14.80;;;;;;;;;;5035742;28;24412;-54
2021/07/25 13:59:30;;;;;;;16.10;14.90;;;;;;;;;;5023288;28;24416;-54
2021/07/25 14:01:55;;;;;;;15.50;14.30;;;;;;;;;;5024026;28;24416;-54
2021/07/25 14:04:20;;;;;;;16.85;15.45;;;;;;;;;;5019066;28;24432;-54
2021/07/25 14:06:45;;;;;;;16.73;15.63;;;;;;;;;;5027113;28;24432;-54
2021/07/25 14:09:10;;;;;;;17.15;15.75;;;;;;;;;;5026778;28;24893;-55
2021/07/25 14:11:37;;;;;;;15.83;14.73;;;;;;;;;;5020248;28;24409;-55
2021/07/25 14:14:02;;;;;;;15.73;14.63;;;;;;;;;;5018589;28;24415;-54
2021/07/25 14:16:27;;;;;;;16.03;14.93;;;;;;;;;;5030778;28;24845;-54